sensor_id;sensor_type;location;lat;lon;timestamp;P1;durP1;ratioP1;P2;durP2;ratioP2
6077;SDS011;3067;49.470;10.394;2023-12-22T00:01:55;3.47;;;0.90;;
6077;SDS011;3067;49.470;10.394;2023-12-22T00:04:22;11.80;;;1.00;;
6077;SDS011;3067;49.470;10.394;2023-12-22T00:06:49;1.27;;;1.00;;
6077;SDS011;3067;49.470;10.394;2023-12-22T00:09:17;2.33;;;1.00;;
6077;SDS011;3067;49.470;10.394;2023-12-22T00:11:45;2.50;;;0.90;;
6077;SDS011;3067;49.470;10.394;2023-12-22T00:14:13;5.17;;;1.57;;
6077;SDS011;3067;49.470;10.394;2023-12-22T00:16:40;6.77;;;1.10;;
6077;SDS011;3067;49.470;10.394;2023-12-22T00:19:07;4.90;;;1.20;;
6077;SDS011;3067;49.470;10.394;2023-12-22T00:21:35;2.77;;;1.27;;
6077;SDS011;3067;49.470;10.394;2023-12-22T00:24:02;5.13;;;1.70;;
6077;SDS011;3067;49.470;10.394;2023-12-22T00:26:29;2.00;;;1.00;;
6077;SDS011;3067;49.470;10.394;2023-12-22T00:28:58;1.33;;;0.80;;
6077;SDS011;3067;49.470;10.394;2023-12-22T00:31:25;7.63;;;1.00;;
6077;SDS011;3067;49.470;10.394;2023-12-22T00:33:52;1.73;;;1.03;;
6077;SDS011;3067;49.470;10.394;2023-12-22T00:36:19;5.33;;;1.00;;
6077;SDS011;3067;49.470;10.394;2023-12-22T00:38:49;2.00;;;1.17;;
6077;SDS011;3067;49.470;10.394;2023-12-22T00:41:16;3.23;;;1.10;;
6077;SDS011;3067;49.470;10.394;2023-12-22T00:43:43;1.97;;;0.80;;
6077;SDS011;3067;49.470;10.394;2023-12-22T00:46:12;2.20;;;0.90;;
6077;SDS011;3067;49.470;10.394;2023-12-22T00:48:39;3.37;;;0.70;;
6077;SDS011;3067;49.470;10.394;2023-12-22T00:51:06;2.90;;;1.10;;
6077;SDS011;3067;49.470;10.394;2023-12-22T00:53:33;1.53;;;1.10;;
6077;SDS011;3067;49.470;10.394;2023-12-22T00:56:00;3.47;;;0.90;;
6077;SDS011;3067;49.470;10.394;2023-12-22T00:58:28;2.27;;;0.90;;
6077;SDS011;3067;49.470;10.394;2023-12-22T01:00:56;0.97;;;0.80;;
6077;SDS011;3067;49.470;10.394;2023-12-22T01:03:24;0.83;;;0.83;;
6077;SDS011;3067;49.470;10.394;2023-12-22T01:05:51;0.70;;;0.70;;
6077;SDS011;3067;49.470;10.394;2023-12-22T01:08:18;3.10;;;0.70;;
6077;SDS011;3067;49.470;10.394;2023-12-22T01:10:46;1.43;;;0.80;;
6077;SDS011;3067;49.470;10.394;2023-12-22T01:13:13;0.70;;;0.70;;
6077;SDS011;3067;49.470;10.394;2023-12-22T01:15:40;2.40;;;0.70;;
6077;SDS011;3067;49.470;10.394;2023-12-22T01:18:08;1.37;;;0.70;;
6077;SDS011;3067;49.470;10.394;2023-12-22T01:20:37;0.77;;;0.77;;
6077;SDS011;3067;49.470;10.394;2023-12-22T01:23:04;0.60;;;0.60;;
6077;SDS011;3067;49.470;10.394;2023-12-22T01:25:31;3.53;;;0.90;;
6077;SDS011;3067;49.470;10.394;2023-12-22T01:27:58;1.10;;;0.70;;
6077;SDS011;3067;49.470;10.394;2023-12-22T01:30:25;7.03;;;0.83;;
6077;SDS011;3067;49.470;10.394;2023-12-22T01:32:52;1.73;;;0.70;;
6077;SDS011;3067;49.470;10.394;2023-12-22T01:35:19;2.30;;;0.90;;
6077;SDS011;3067;49.470;10.394;2023-12-22T01:37:48;1.00;;;0.77;;
6077;SDS011;3067;49.470;10.394;2023-12-22T01:40:15;1.47;;;0.80;;
6077;SDS011;3067;49.470;10.394;2023-12-22T01:42:42;0.57;;;0.57;;
6077;SDS011;3067;49.470;10.394;2023-12-22T01:45:10;2.57;;;0.60;;
6077;SDS011;3067;49.470;10.394;2023-12-22T01:47:37;0.80;;;0.70;;
6077;SDS011;3067;49.470;10.394;2023-12-22T01:50:06;0.80;;;0.80;;
6077;SDS011;3067;49.470;10.394;2023-12-22T01:52:35;2.67;;;0.80;;
6077;SDS011;3067;49.470;10.394;2023-12-22T01:55:05;4.87;;;0.73;;
6077;SDS011;3067;49.470;10.394;2023-12-22T01:57:35;3.33;;;0.70;;
6077;SDS011;3067;49.470;10.394;2023-12-22T02:00:03;0.70;;;0.70;;
6077;SDS011;3067;49.470;10.394;2023-12-22T02:02:31;5.13;;;1.17;;
6077;SDS011;3067;49.470;10.394;2023-12-22T02:04:58;4.10;;;0.80;;
6077;SDS011;3067;49.470;10.394;2023-12-22T02:07:25;3.70;;;0.70;;
6077;SDS011;3067;49.470;10.394;2023-12-22T02:09:53;0.80;;;0.80;;
6077;SDS011;3067;49.470;10.394;2023-12-22T02:12:22;5.07;;;1.70;;
6077;SDS011;3067;49.470;10.394;2023-12-22T02:14:49;5.43;;;2.40;;
6077;SDS011;3067;49.470;10.394;2023-12-22T02:17:18;4.73;;;0.70;;
6077;SDS011;3067;49.470;10.394;2023-12-22T02:19:50;0.70;;;0.70;;
6077;SDS011;3067;49.470;10.394;2023-12-22T02:22:18;3.27;;;0.80;;
6077;SDS011;3067;49.470;10.394;2023-12-22T02:24:48;0.87;;;0.77;;
6077;SDS011;3067;49.470;10.394;2023-12-22T02:27:21;2.53;;;0.80;;
6077;SDS011;3067;49.470;10.394;2023-12-22T02:29:57;0.60;;;0.60;;
6077;SDS011;3067;49.470;10.394;2023-12-22T02:32:32;1.87;;;0.70;;
6077;SDS011;3067;49.470;10.394;2023-12-22T02:35:05;0.93;;;0.60;;
6077;SDS011;3067;49.470;10.394;2023-12-22T02:37:36;1.50;;;1.00;;
6077;SDS011;3067;49.470;10.394;2023-12-22T02:40:07;0.70;;;0.70;;
6077;SDS011;3067;49.470;10.394;2023-12-22T02:42:35;2.10;;;0.67;;
6077;SDS011;3067;49.470;10.394;2023-12-22T02:45:03;0.60;;;0.60;;
6077;SDS011;3067;49.470;10.394;2023-12-22T02:47:31;0.80;;;0.80;;
6077;SDS011;3067;49.470;10.394;2023-12-22T02:49:58;0.67;;;0.67;;
6077;SDS011;3067;49.470;10.394;2023-12-22T02:52:25;2.87;;;0.60;;
6077;SDS011;3067;49.470;10.394;2023-12-22T02:54:52;2.00;;;0.60;;
6077;SDS011;3067;49.470;10.394;2023-12-22T02:57:21;0.70;;;0.70;;
6077;SDS011;3067;49.470;10.394;2023-12-22T02:59:48;0.60;;;0.60;;
6077;SDS011;3067;49.470;10.394;2023-12-22T03:02:15;0.97;;;0.80;;
6077;SDS011;3067;49.470;10.394;2023-12-22T03:04:42;0.73;;;0.60;;
6077;SDS011;3067;49.470;10.394;2023-12-22T03:07:11;0.50;;;0.50;;
6077;SDS011;3067;49.470;10.394;2023-12-22T03:09:38;0.50;;;0.50;;
6077;SDS011;3067;49.470;10.394;2023-12-22T03:12:06;0.90;;;0.50;;
6077;SDS011;3067;49.470;10.394;2023-12-22T03:14:35;0.50;;;0.50;;
6077;SDS011;3067;49.470;10.394;2023-12-22T03:17:02;0.50;;;0.50;;
6077;SDS011;3067;49.470;10.394;2023-12-22T03:19:31;0.50;;;0.50;;
6077;SDS011;3067;49.470;10.394;2023-12-22T03:21:58;0.97;;;0.50;;
6077;SDS011;3067;49.470;10.394;2023-12-22T03:24:26;0.60;;;0.60;;
6077;SDS011;3067;49.470;10.394;2023-12-22T03:26:53;1.33;;;0.50;;
6077;SDS011;3067;49.470;10.394;2023-12-22T03:29:21;0.50;;;0.50;;
6077;SDS011;3067;49.470;10.394;2023-12-22T03:31:49;0.50;;;0.50;;
6077;SDS011;3067;49.470;10.394;2023-12-22T03:34:15;4.30;;;0.80;;
6077;SDS011;3067;49.470;10.394;2023-12-22T03:36:42;0.60;;;0.60;;
6077;SDS011;3067;49.470;10.394;2023-12-22T03:39:13;0.60;;;0.60;;
6077;SDS011;3067;49.470;10.394;2023-12-22T03:41:40;1.43;;;0.50;;
6077;SDS011;3067;49.470;10.394;2023-12-22T03:44:07;4.50;;;0.70;;
6077;SDS011;3067;49.470;10.394;2023-12-22T03:46:34;0.50;;;0.50;;
6077;SDS011;3067;49.470;10.394;2023-12-22T03:49:03;0.83;;;0.50;;
6077;SDS011;3067;49.470;10.394;2023-12-22T03:51:30;0.60;;;0.60;;
6077;SDS011;3067;49.470;10.394;2023-12-22T03:53:57;4.63;;;0.67;;
6077;SDS011;3067;49.470;10.394;2023-12-22T03:56:24;0.60;;;0.60;;
6077;SDS011;3067;49.470;10.394;2023-12-22T03:58:51;2.03;;;0.60;;
6077;SDS011;3067;49.470;10.394;2023-12-22T04:01:18;0.60;;;0.60;;
6077;SDS011;3067;49.470;10.394;2023-12-22T04:03:45;0.70;;;0.60;;
6077;SDS011;3067;49.470;10.394;2023-12-22T04:06:13;3.40;;;0.60;;
6077;SDS011;3067;49.470;10.394;2023-12-22T04:08:41;0.80;;;0.80;;
6077;SDS011;3067;49.470;10.394;2023-12-22T04:11:08;0.60;;;0.60;;
6077;SDS011;3067;49.470;10.394;2023-12-22T04:13:35;2.30;;;0.80;;
6077;SDS011;3067;49.470;10.394;2023-12-22T04:16:02;0.57;;;0.50;;
6077;SDS011;3067;49.470;10.394;2023-12-22T04:18:30;0.50;;;0.50;;
6077;SDS011;3067;49.470;10.394;2023-12-22T04:20:57;1.07;;;0.50;;
6077;SDS011;3067;49.470;10.394;2023-12-22T04:23:26;1.07;;;0.50;;
6077;SDS011;3067;49.470;10.394;2023-12-22T04:25:53;1.60;;;0.80;;
6077;SDS011;3067;49.470;10.394;2023-12-22T04:28:20;0.83;;;0.50;;
6077;SDS011;3067;49.470;10.394;2023-12-22T04:30:47;0.70;;;0.67;;
6077;SDS011;3067;49.470;10.394;2023-12-22T04:33:14;0.50;;;0.50;;
6077;SDS011;3067;49.470;10.394;2023-12-22T04:35:41;0.50;;;0.50;;
6077;SDS011;3067;49.470;10.394;2023-12-22T04:38:08;0.70;;;0.70;;
6077;SDS011;3067;49.470;10.394;2023-12-22T04:40:36;0.83;;;0.60;;
6077;SDS011;3067;49.470;10.394;2023-12-22T04:43:03;0.60;;;0.60;;
6077;SDS011;3067;49.470;10.394;2023-12-22T04:45:30;1.07;;;0.60;;
6077;SDS011;3067;49.470;10.394;2023-12-22T04:47:57;0.50;;;0.50;;
6077;SDS011;3067;49.470;10.394;2023-12-22T04:50:25;0.57;;;0.57;;
6077;SDS011;3067;49.470;10.394;2023-12-22T04:52:52;0.50;;;0.50;;
6077;SDS011;3067;49.470;10.394;2023-12-22T04:55:19;0.63;;;0.63;;
6077;SDS011;3067;49.470;10.394;2023-12-22T04:57:48;0.70;;;0.70;;
6077;SDS011;3067;49.470;10.394;2023-12-22T05:00:15;1.57;;;1.00;;
6077;SDS011;3067;49.470;10.394;2023-12-22T05:02:42;1.53;;;0.60;;
6077;SDS011;3067;49.470;10.394;2023-12-22T05:05:09;1.27;;;0.60;;
6077;SDS011;3067;49.470;10.394;2023-12-22T05:07:38;0.57;;;0.57;;
6077;SDS011;3067;49.470;10.394;2023-12-22T05:10:06;0.90;;;0.60;;
6077;SDS011;3067;49.470;10.394;2023-12-22T05:12:33;1.43;;;0.60;;
6077;SDS011;3067;49.470;10.394;2023-12-22T05:15:02;0.60;;;0.60;;
6077;SDS011;3067;49.470;10.394;2023-12-22T05:17:29;0.60;;;0.60;;
6077;SDS011;3067;49.470;10.394;2023-12-22T05:19:57;1.03;;;0.60;;
6077;SDS011;3067;49.470;10.394;2023-12-22T05:22:25;2.23;;;0.60;;
6077;SDS011;3067;49.470;10.394;2023-12-22T05:24:55;0.73;;;0.73;;
6077;SDS011;3067;49.470;10.394;2023-12-22T05:27:22;0.60;;;0.60;;
6077;SDS011;3067;49.470;10.394;2023-12-22T05:29:49;0.60;;;0.60;;
6077;SDS011;3067;49.470;10.394;2023-12-22T05:32:17;0.60;;;0.60;;
6077;SDS011;3067;49.470;10.394;2023-12-22T05:34:44;0.60;;;0.60;;
6077;SDS011;3067;49.470;10.394;2023-12-22T05:37:11;0.70;;;0.60;;
6077;SDS011;3067;49.470;10.394;2023-12-22T05:39:38;0.50;;;0.50;;
6077;SDS011;3067;49.470;10.394;2023-12-22T05:42:06;1.10;;;0.80;;
6077;SDS011;3067;49.470;10.394;2023-12-22T05:44:33;0.60;;;0.60;;
6077;SDS011;3067;49.470;10.394;2023-12-22T05:47:00;0.60;;;0.60;;
6077;SDS011;3067;49.470;10.394;2023-12-22T05:49:28;1.10;;;0.80;;
6077;SDS011;3067;49.470;10.394;2023-12-22T05:51:55;0.90;;;0.70;;
6077;SDS011;3067;49.470;10.394;2023-12-22T05:54:22;1.10;;;0.80;;
6077;SDS011;3067;49.470;10.394;2023-12-22T05:56:50;0.73;;;0.73;;
6077;SDS011;3067;49.470;10.394;2023-12-22T05:59:18;0.90;;;0.90;;
6077;SDS011;3067;49.470;10.394;2023-12-22T06:01:45;2.50;;;1.10;;
6077;SDS011;3067;49.470;10.394;2023-12-22T06:04:12;1.80;;;1.33;;
6077;SDS011;3067;49.470;10.394;2023-12-22T06:06:40;1.23;;;0.70;;
6077;SDS011;3067;49.470;10.394;2023-12-22T06:09:07;12.30;;;0.90;;
6077;SDS011;3067;49.470;10.394;2023-12-22T06:11:37;3.93;;;1.13;;
6077;SDS011;3067;49.470;10.394;2023-12-22T06:14:04;11.00;;;1.10;;
6077;SDS011;3067;49.470;10.394;2023-12-22T06:16:31;1.63;;;1.30;;
6077;SDS011;3067;49.470;10.394;2023-12-22T06:18:58;1.43;;;1.33;;
6077;SDS011;3067;49.470;10.394;2023-12-22T06:21:25;2.63;;;1.13;;
6077;SDS011;3067;49.470;10.394;2023-12-22T06:23:54;14.60;;;1.10;;
6077;SDS011;3067;49.470;10.394;2023-12-22T06:26:21;5.33;;;1.40;;
6077;SDS011;3067;49.470;10.394;2023-12-22T06:28:48;1.97;;;1.13;;
6077;SDS011;3067;49.470;10.394;2023-12-22T06:31:19;9.50;;;3.73;;
6077;SDS011;3067;49.470;10.394;2023-12-22T06:33:47;1.37;;;1.27;;
6077;SDS011;3067;49.470;10.394;2023-12-22T06:36:19;2.00;;;0.97;;
6077;SDS011;3067;49.470;10.394;2023-12-22T06:38:46;1.70;;;0.90;;
6077;SDS011;3067;49.470;10.394;2023-12-22T06:41:22;8.00;;;1.03;;
6077;SDS011;3067;49.470;10.394;2023-12-22T06:43:50;6.03;;;2.13;;
6077;SDS011;3067;49.470;10.394;2023-12-22T06:46:17;6.83;;;1.73;;
6077;SDS011;3067;49.470;10.394;2023-12-22T06:48:45;2.90;;;0.80;;
6077;SDS011;3067;49.470;10.394;2023-12-22T06:51:18;5.60;;;1.00;;
6077;SDS011;3067;49.470;10.394;2023-12-22T06:53:46;3.10;;;1.03;;
6077;SDS011;3067;49.470;10.394;2023-12-22T06:56:16;1.40;;;1.30;;
6077;SDS011;3067;49.470;10.394;2023-12-22T06:58:45;1.53;;;1.33;;
6077;SDS011;3067;49.470;10.394;2023-12-22T07:01:17;1.00;;;1.00;;
6077;SDS011;3067;49.470;10.394;2023-12-22T07:03:46;6.13;;;1.60;;
6077;SDS011;3067;49.470;10.394;2023-12-22T07:06:14;3.43;;;1.43;;
6077;SDS011;3067;49.470;10.394;2023-12-22T07:08:41;3.80;;;1.27;;
6077;SDS011;3067;49.470;10.394;2023-12-22T07:11:09;2.63;;;1.10;;
6077;SDS011;3067;49.470;10.394;2023-12-22T07:13:36;2.10;;;1.30;;
6077;SDS011;3067;49.470;10.394;2023-12-22T07:16:04;6.90;;;1.50;;
6077;SDS011;3067;49.470;10.394;2023-12-22T07:18:32;2.63;;;1.10;;
6077;SDS011;3067;49.470;10.394;2023-12-22T07:20:59;3.30;;;1.33;;
6077;SDS011;3067;49.470;10.394;2023-12-22T07:23:27;1.40;;;1.10;;
6077;SDS011;3067;49.470;10.394;2023-12-22T07:25:54;1.00;;;0.90;;
6077;SDS011;3067;49.470;10.394;2023-12-22T07:28:21;1.33;;;1.00;;
6077;SDS011;3067;49.470;10.394;2023-12-22T07:30:48;5.90;;;1.20;;
6077;SDS011;3067;49.470;10.394;2023-12-22T07:33:16;6.63;;;1.10;;
6077;SDS011;3067;49.470;10.394;2023-12-22T07:35:43;3.37;;;0.97;;
6077;SDS011;3067;49.470;10.394;2023-12-22T07:38:10;1.07;;;0.90;;
6077;SDS011;3067;49.470;10.394;2023-12-22T07:40:37;0.90;;;0.70;;
6077;SDS011;3067;49.470;10.394;2023-12-22T07:43:04;3.70;;;0.90;;
6077;SDS011;3067;49.470;10.394;2023-12-22T07:45:33;2.20;;;1.10;;
6077;SDS011;3067;49.470;10.394;2023-12-22T07:48:00;0.70;;;0.70;;
6077;SDS011;3067;49.470;10.394;2023-12-22T07:50:28;1.00;;;0.80;;
6077;SDS011;3067;49.470;10.394;2023-12-22T07:52:55;7.70;;;1.00;;
6077;SDS011;3067;49.470;10.394;2023-12-22T07:55:23;2.40;;;0.83;;
6077;SDS011;3067;49.470;10.394;2023-12-22T07:57:50;0.90;;;0.80;;
6077;SDS011;3067;49.470;10.394;2023-12-22T08:00:18;1.43;;;1.07;;
6077;SDS011;3067;49.470;10.394;2023-12-22T08:02:45;3.30;;;1.23;;
6077;SDS011;3067;49.470;10.394;2023-12-22T08:05:13;1.53;;;0.80;;
6077;SDS011;3067;49.470;10.394;2023-12-22T08:07:42;3.77;;;0.83;;
6077;SDS011;3067;49.470;10.394;2023-12-22T08:10:09;2.40;;;0.80;;
6077;SDS011;3067;49.470;10.394;2023-12-22T08:12:36;2.53;;;1.37;;
6077;SDS011;3067;49.470;10.394;2023-12-22T08:15:03;0.70;;;0.70;;
6077;SDS011;3067;49.470;10.394;2023-12-22T08:17:31;2.20;;;1.00;;
6077;SDS011;3067;49.470;10.394;2023-12-22T08:19:59;6.07;;;0.90;;
6077;SDS011;3067;49.470;10.394;2023-12-22T08:22:26;2.80;;;0.80;;
6077;SDS011;3067;49.470;10.394;2023-12-22T08:24:54;0.80;;;0.80;;
6077;SDS011;3067;49.470;10.394;2023-12-22T08:27:21;0.90;;;0.90;;
6077;SDS011;3067;49.470;10.394;2023-12-22T08:29:49;1.70;;;0.90;;
6077;SDS011;3067;49.470;10.394;2023-12-22T08:32:16;5.90;;;1.30;;
6077;SDS011;3067;49.470;10.394;2023-12-22T08:34:44;0.83;;;0.83;;
6077;SDS011;3067;49.470;10.394;2023-12-22T08:37:12;1.27;;;0.90;;
6077;SDS011;3067;49.470;10.394;2023-12-22T08:39:39;0.70;;;0.70;;
6077;SDS011;3067;49.470;10.394;2023-12-22T08:42:07;2.03;;;1.10;;
6077;SDS011;3067;49.470;10.394;2023-12-22T08:44:34;0.90;;;0.90;;
6077;SDS011;3067;49.470;10.394;2023-12-22T08:47:02;3.13;;;1.20;;
6077;SDS011;3067;49.470;10.394;2023-12-22T08:49:29;0.77;;;0.77;;
6077;SDS011;3067;49.470;10.394;2023-12-22T08:51:56;1.73;;;1.07;;
6077;SDS011;3067;49.470;10.394;2023-12-22T08:54:23;3.13;;;0.97;;
6077;SDS011;3067;49.470;10.394;2023-12-22T08:56:51;1.00;;;0.80;;
6077;SDS011;3067;49.470;10.394;2023-12-22T08:59:20;2.10;;;1.00;;
6077;SDS011;3067;49.470;10.394;2023-12-22T09:01:47;7.20;;;1.47;;
6077;SDS011;3067;49.470;10.394;2023-12-22T09:04:14;4.00;;;1.43;;
6077;SDS011;3067;49.470;10.394;2023-12-22T09:06:41;6.30;;;1.47;;
6077;SDS011;3067;49.470;10.394;2023-12-22T09:09:08;2.83;;;1.00;;
6077;SDS011;3067;49.470;10.394;2023-12-22T09:11:35;14.33;;;2.17;;
6077;SDS011;3067;49.470;10.394;2023-12-22T09:14:04;9.63;;;2.57;;
6077;SDS011;3067;49.470;10.394;2023-12-22T09:16:35;5.57;;;1.70;;
6077;SDS011;3067;49.470;10.394;2023-12-22T09:19:03;4.70;;;1.53;;
6077;SDS011;3067;49.470;10.394;2023-12-22T09:21:30;9.63;;;1.50;;
6077;SDS011;3067;49.470;10.394;2023-12-22T09:23:57;2.10;;;1.13;;
6077;SDS011;3067;49.470;10.394;2023-12-22T09:26:24;1.70;;;1.20;;
6077;SDS011;3067;49.470;10.394;2023-12-22T09:28:51;12.47;;;1.27;;
6077;SDS011;3067;49.470;10.394;2023-12-22T09:31:19;3.43;;;1.17;;
6077;SDS011;3067;49.470;10.394;2023-12-22T09:33:48;1.07;;;1.00;;
6077;SDS011;3067;49.470;10.394;2023-12-22T09:36:15;5.17;;;1.50;;
6077;SDS011;3067;49.470;10.394;2023-12-22T09:38:43;4.90;;;1.10;;
6077;SDS011;3067;49.470;10.394;2023-12-22T09:41:10;3.67;;;1.57;;
6077;SDS011;3067;49.470;10.394;2023-12-22T09:43:37;3.87;;;1.13;;
6077;SDS011;3067;49.470;10.394;2023-12-22T09:46:06;3.70;;;1.43;;
6077;SDS011;3067;49.470;10.394;2023-12-22T09:48:35;4.10;;;1.10;;
6077;SDS011;3067;49.470;10.394;2023-12-22T09:51:06;3.23;;;1.03;;
6077;SDS011;3067;49.470;10.394;2023-12-22T09:53:35;10.03;;;1.63;;
6077;SDS011;3067;49.470;10.394;2023-12-22T09:56:04;2.77;;;1.10;;
6077;SDS011;3067;49.470;10.394;2023-12-22T09:58:33;4.40;;;1.47;;
6077;SDS011;3067;49.470;10.394;2023-12-22T10:01:02;1.17;;;1.07;;
6077;SDS011;3067;49.470;10.394;2023-12-22T10:03:31;1.97;;;1.20;;
6077;SDS011;3067;49.470;10.394;2023-12-22T10:06:00;5.10;;;1.40;;
6077;SDS011;3067;49.470;10.394;2023-12-22T10:08:29;1.33;;;0.93;;
6077;SDS011;3067;49.470;10.394;2023-12-22T10:10:57;1.40;;;0.93;;
6077;SDS011;3067;49.470;10.394;2023-12-22T10:13:24;1.83;;;1.00;;
6077;SDS011;3067;49.470;10.394;2023-12-22T10:15:53;1.40;;;1.00;;
6077;SDS011;3067;49.470;10.394;2023-12-22T10:18:21;1.67;;;0.77;;
6077;SDS011;3067;49.470;10.394;2023-12-22T10:20:48;2.10;;;0.80;;
6077;SDS011;3067;49.470;10.394;2023-12-22T10:23:16;4.03;;;1.37;;
6077;SDS011;3067;49.470;10.394;2023-12-22T10:25:44;7.07;;;0.93;;
6077;SDS011;3067;49.470;10.394;2023-12-22T10:28:12;2.40;;;0.80;;
6077;SDS011;3067;49.470;10.394;2023-12-22T10:30:40;2.03;;;0.90;;
6077;SDS011;3067;49.470;10.394;2023-12-22T10:33:11;1.03;;;0.80;;
6077;SDS011;3067;49.470;10.394;2023-12-22T10:35:38;5.40;;;1.00;;
6077;SDS011;3067;49.470;10.394;2023-12-22T10:38:07;1.90;;;0.67;;
6077;SDS011;3067;49.470;10.394;2023-12-22T10:40:36;1.10;;;0.80;;
6077;SDS011;3067;49.470;10.394;2023-12-22T10:43:05;1.70;;;0.70;;
6077;SDS011;3067;49.470;10.394;2023-12-22T10:45:32;0.70;;;0.70;;
6077;SDS011;3067;49.470;10.394;2023-12-22T10:48:00;2.20;;;0.70;;
6077;SDS011;3067;49.470;10.394;2023-12-22T10:50:27;1.50;;;0.80;;
6077;SDS011;3067;49.470;10.394;2023-12-22T10:52:54;3.60;;;0.97;;
6077;SDS011;3067;49.470;10.394;2023-12-22T10:55:22;0.63;;;0.63;;
6077;SDS011;3067;49.470;10.394;2023-12-22T10:57:49;1.00;;;0.70;;
6077;SDS011;3067;49.470;10.394;2023-12-22T11:00:19;2.00;;;0.83;;
6077;SDS011;3067;49.470;10.394;2023-12-22T11:02:47;3.77;;;0.97;;
6077;SDS011;3067;49.470;10.394;2023-12-22T11:05:15;2.70;;;1.10;;
6077;SDS011;3067;49.470;10.394;2023-12-22T11:07:46;1.20;;;0.80;;
6077;SDS011;3067;49.470;10.394;2023-12-22T11:10:16;2.90;;;0.93;;
6077;SDS011;3067;49.470;10.394;2023-12-22T11:12:46;2.10;;;1.13;;
6077;SDS011;3067;49.470;10.394;2023-12-22T11:15:14;1.00;;;0.90;;
6077;SDS011;3067;49.470;10.394;2023-12-22T11:17:42;1.87;;;1.00;;
6077;SDS011;3067;49.470;10.394;2023-12-22T11:20:11;1.27;;;0.90;;
6077;SDS011;3067;49.470;10.394;2023-12-22T11:22:39;2.50;;;1.20;;
6077;SDS011;3067;49.470;10.394;2023-12-22T11:25:08;3.73;;;1.03;;
6077;SDS011;3067;49.470;10.394;2023-12-22T11:27:36;8.53;;;1.00;;
6077;SDS011;3067;49.470;10.394;2023-12-22T11:30:04;6.50;;;1.40;;
6077;SDS011;3067;49.470;10.394;2023-12-22T11:32:34;2.83;;;1.33;;
6077;SDS011;3067;49.470;10.394;2023-12-22T11:35:03;5.23;;;1.70;;
6077;SDS011;3067;49.470;10.394;2023-12-22T11:37:32;4.00;;;1.23;;
6077;SDS011;3067;49.470;10.394;2023-12-22T11:40:01;2.23;;;1.30;;
6077;SDS011;3067;49.470;10.394;2023-12-22T11:42:28;5.60;;;1.60;;
6077;SDS011;3067;49.470;10.394;2023-12-22T11:45:01;2.70;;;2.10;;
6077;SDS011;3067;49.470;10.394;2023-12-22T11:47:30;5.83;;;2.37;;
6077;SDS011;3067;49.470;10.394;2023-12-22T11:49:58;3.60;;;1.87;;
6077;SDS011;3067;49.470;10.394;2023-12-22T11:52:26;3.40;;;1.37;;
6077;SDS011;3067;49.470;10.394;2023-12-22T11:54:54;8.40;;;2.40;;
6077;SDS011;3067;49.470;10.394;2023-12-22T11:57:30;13.20;;;1.87;;
6077;SDS011;3067;49.470;10.394;2023-12-22T12:00:01;3.33;;;1.60;;
6077;SDS011;3067;49.470;10.394;2023-12-22T12:02:32;5.90;;;2.00;;
6077;SDS011;3067;49.470;10.394;2023-12-22T12:05:00;7.70;;;2.10;;
6077;SDS011;3067;49.470;10.394;2023-12-22T12:07:42;13.73;;;2.90;;
6077;SDS011;3067;49.470;10.394;2023-12-22T12:10:11;6.87;;;2.27;;
6077;SDS011;3067;49.470;10.394;2023-12-22T12:12:39;5.47;;;2.10;;
6077;SDS011;3067;49.470;10.394;2023-12-22T12:15:07;8.30;;;1.80;;
6077;SDS011;3067;49.470;10.394;2023-12-22T12:17:38;4.93;;;2.10;;
6077;SDS011;3067;49.470;10.394;2023-12-22T12:20:07;4.83;;;2.33;;
6077;SDS011;3067;49.470;10.394;2023-12-22T12:22:36;9.60;;;2.20;;
6077;SDS011;3067;49.470;10.394;2023-12-22T12:25:08;11.70;;;2.77;;
6077;SDS011;3067;49.470;10.394;2023-12-22T12:27:36;11.07;;;2.90;;
6077;SDS011;3067;49.470;10.394;2023-12-22T12:30:09;12.00;;;2.57;;
6077;SDS011;3067;49.470;10.394;2023-12-22T12:32:39;14.20;;;2.17;;
6077;SDS011;3067;49.470;10.394;2023-12-22T12:35:08;7.00;;;2.30;;
6077;SDS011;3067;49.470;10.394;2023-12-22T12:37:35;8.83;;;2.87;;
6077;SDS011;3067;49.470;10.394;2023-12-22T12:40:03;9.83;;;2.50;;
6077;SDS011;3067;49.470;10.394;2023-12-22T12:42:37;14.30;;;2.57;;
6077;SDS011;3067;49.470;10.394;2023-12-22T12:45:05;9.73;;;2.50;;
6077;SDS011;3067;49.470;10.394;2023-12-22T12:47:33;8.60;;;2.57;;
6077;SDS011;3067;49.470;10.394;2023-12-22T12:50:00;10.10;;;2.73;;
6077;SDS011;3067;49.470;10.394;2023-12-22T12:52:28;10.67;;;2.70;;
6077;SDS011;3067;49.470;10.394;2023-12-22T12:54:55;6.93;;;1.77;;
6077;SDS011;3067;49.470;10.394;2023-12-22T12:57:25;7.20;;;2.00;;
6077;SDS011;3067;49.470;10.394;2023-12-22T12:59:52;3.80;;;1.20;;
6077;SDS011;3067;49.470;10.394;2023-12-22T13:02:19;10.07;;;2.17;;
6077;SDS011;3067;49.470;10.394;2023-12-22T13:04:47;7.63;;;1.70;;
6077;SDS011;3067;49.470;10.394;2023-12-22T13:07:23;2.60;;;1.77;;
6077;SDS011;3067;49.470;10.394;2023-12-22T13:09:51;4.07;;;1.80;;
6077;SDS011;3067;49.470;10.394;2023-12-22T13:12:19;3.10;;;1.87;;
6077;SDS011;3067;49.470;10.394;2023-12-22T13:14:48;5.87;;;1.90;;
6077;SDS011;3067;49.470;10.394;2023-12-22T13:17:16;3.23;;;1.20;;
6077;SDS011;3067;49.470;10.394;2023-12-22T13:19:46;8.20;;;1.00;;
6077;SDS011;3067;49.470;10.394;2023-12-22T13:22:15;2.87;;;1.30;;
6077;SDS011;3067;49.470;10.394;2023-12-22T13:24:43;2.53;;;1.50;;
6077;SDS011;3067;49.470;10.394;2023-12-22T13:27:21;1.40;;;1.30;;
6077;SDS011;3067;49.470;10.394;2023-12-22T13:29:50;2.70;;;0.83;;
6077;SDS011;3067;49.470;10.394;2023-12-22T13:32:19;1.80;;;1.20;;
6077;SDS011;3067;49.470;10.394;2023-12-22T13:34:49;2.97;;;1.40;;
6077;SDS011;3067;49.470;10.394;2023-12-22T13:37:17;3.00;;;1.27;;
6077;SDS011;3067;49.470;10.394;2023-12-22T13:39:44;2.73;;;0.80;;
6077;SDS011;3067;49.470;10.394;2023-12-22T13:42:15;1.57;;;1.00;;
6077;SDS011;3067;49.470;10.394;2023-12-22T13:44:43;2.00;;;0.90;;
6077;SDS011;3067;49.470;10.394;2023-12-22T13:47:13;6.90;;;1.30;;
6077;SDS011;3067;49.470;10.394;2023-12-22T13:49:41;2.60;;;1.17;;
6077;SDS011;3067;49.470;10.394;2023-12-22T13:52:26;1.80;;;0.80;;
6077;SDS011;3067;49.470;10.394;2023-12-22T13:54:54;2.07;;;1.00;;
6077;SDS011;3067;49.470;10.394;2023-12-22T13:57:23;3.73;;;0.80;;
6077;SDS011;3067;49.470;10.394;2023-12-22T13:59:50;3.33;;;0.87;;
6077;SDS011;3067;49.470;10.394;2023-12-22T14:02:22;1.17;;;1.10;;
6077;SDS011;3067;49.470;10.394;2023-12-22T14:04:49;1.00;;;0.90;;
6077;SDS011;3067;49.470;10.394;2023-12-22T14:07:22;4.23;;;0.93;;
6077;SDS011;3067;49.470;10.394;2023-12-22T14:10:10;0.80;;;0.80;;
6077;SDS011;3067;49.470;10.394;2023-12-22T14:12:38;2.03;;;1.00;;
6077;SDS011;3067;49.470;10.394;2023-12-22T14:15:05;2.30;;;0.90;;
6077;SDS011;3067;49.470;10.394;2023-12-22T14:17:35;0.90;;;0.80;;
6077;SDS011;3067;49.470;10.394;2023-12-22T14:20:02;2.00;;;1.07;;
6077;SDS011;3067;49.470;10.394;2023-12-22T14:22:32;1.50;;;0.70;;
6077;SDS011;3067;49.470;10.394;2023-12-22T14:25:00;1.40;;;0.93;;
6077;SDS011;3067;49.470;10.394;2023-12-22T14:27:28;2.70;;;0.80;;
6077;SDS011;3067;49.470;10.394;2023-12-22T14:29:55;1.17;;;0.90;;
6077;SDS011;3067;49.470;10.394;2023-12-22T14:32:22;1.23;;;1.00;;
6077;SDS011;3067;49.470;10.394;2023-12-22T14:34:51;2.03;;;0.90;;
6077;SDS011;3067;49.470;10.394;2023-12-22T14:37:19;1.60;;;0.93;;
6077;SDS011;3067;49.470;10.394;2023-12-22T14:39:49;1.27;;;1.03;;
6077;SDS011;3067;49.470;10.394;2023-12-22T14:42:16;0.83;;;0.83;;
6077;SDS011;3067;49.470;10.394;2023-12-22T14:44:43;1.13;;;1.03;;
6077;SDS011;3067;49.470;10.394;2023-12-22T14:47:10;2.00;;;0.80;;
6077;SDS011;3067;49.470;10.394;2023-12-22T14:49:37;2.00;;;1.03;;
6077;SDS011;3067;49.470;10.394;2023-12-22T14:52:08;2.60;;;1.30;;
6077;SDS011;3067;49.470;10.394;2023-12-22T14:54:35;1.57;;;1.30;;
6077;SDS011;3067;49.470;10.394;2023-12-22T14:57:02;1.10;;;0.80;;
6077;SDS011;3067;49.470;10.394;2023-12-22T14:59:29;1.90;;;1.30;;
6077;SDS011;3067;49.470;10.394;2023-12-22T15:01:56;0.97;;;0.87;;
6077;SDS011;3067;49.470;10.394;2023-12-22T15:04:23;0.80;;;0.80;;
6077;SDS011;3067;49.470;10.394;2023-12-22T15:06:51;0.87;;;0.87;;